Time;durP1;ratioP1;P1;durP2;ratioP2;P2;SDS_P1;SDS_P2;PMS_P1;PMS_P2;Temp;Humidity;BMP_temperature;BMP_pressure;BME280_temperature;BME280_humidity;BME280_pressure;Samples;Min_cycle;Max_cycle;Signal;HPM_P1;HPM_P2
2022/01/04 00:00:49;;;;;;;14.20;4.20;;;;;;;4.91;97.98;98246.85;104555;1280;73146;-69
2022/01/04 00:03:44;;;;;;;13.10;3.80;;;;;;;4.94;98.39;98249.09;104592;1278;59908;-70
2022/01/04 00:06:40;;;;;;;15.40;4.00;;;;;;;4.96;98.29;98245.08;104644;1277;60288;-69
2022/01/04 00:09:29;;;;;;;14.30;4.20;;;;;;;4.97;98.34;98242.50;104661;1277;71744;-70
2022/01/04 00:15:47;;;;;;;14.10;3.80;;;;;;;4.99;98.00;98246.20;104599;1278;73295;-70
2022/01/04 00:22:12;;;;;;;14.40;3.60;;;;;;;5.03;97.87;98235.39;104899;1277;60506;-70
2022/01/04 00:25:15;;;;;;;13.30;3.20;;;;;;;5.04;97.82;98236.82;104898;1280;72473;-69
2022/01/04 00:28:07;;;;;;;13.60;3.40;;;;;;;5.06;97.37;98231.73;104841;1273;68011;-69
2022/01/04 00:31:43;;;;;;;12.90;3.30;;;;;;;5.08;97.20;98226.46;105263;1274;73534;-69
2022/01/04 00:34:52;;;;;;;15.30;3.90;;;;;;;5.10;97.24;98225.25;105190;1273;60143;-69
2022/01/04 00:37:44;;;;;;;12.20;3.90;;;;;;;5.13;96.97;98218.14;104849;1274;60501;-69
2022/01/04 00:40:36;;;;;;;14.20;3.90;;;;;;;5.15;96.77;98217.81;104904;1273;71603;-69
2022/01/04 00:47:41;;;;;;;15.50;4.00;;;;;;;5.17;96.49;98209.38;105484;1274;72667;-69
2022/01/04 00:50:31;;;;;;;15.90;3.60;;;;;;;5.15;96.91;98205.67;105118;1274;60099;-69
2022/01/04 00:53:21;;;;;;;17.60;4.10;;;;;;;5.14;96.49;98202.60;105075;1274;60377;-69
2022/01/04 00:56:11;;;;;;;12.80;3.80;;;;;;;5.13;96.89;98202.33;104740;1274;71554;-70
2022/01/04 00:59:04;;;;;;;16.00;3.70;;;;;;;5.12;96.63;98192.76;105048;1274;67431;-70
2022/01/04 01:01:55;;;;;;;11.50;3.50;;;;;;;5.09;96.73;98186.86;104932;1274;71289;-70
2022/01/04 01:04:52;;;;;;;14.50;3.80;;;;;;;5.05;96.93;98182.98;104767;1277;60059;-69
2022/01/04 01:07:42;;;;;;;15.70;3.80;;;;;;;5.04;96.51;98184.46;104736;1277;59960;-70
2022/01/04 01:10:47;;;;;;;13.10;3.30;;;;;;;5.03;96.24;98187.52;104647;1276;73067;-70
2022/01/04 01:13:37;;;;;;;12.40;4.00;;;;;;;5.02;96.49;98183.90;104830;1277;68234;-69
2022/01/04 01:16:29;;;;;;;10.60;3.30;;;;;;;5.02;96.18;98187.98;104837;1276;73095;-69
2022/01/04 01:19:21;;;;;;;13.40;3.70;;;;;;;5.00;96.34;98183.20;105129;1277;59850;-69
2022/01/04 01:22:22;;;;;;;12.40;3.10;;;;;;;4.98;96.22;98184.61;104522;1277;59781;-70
2022/01/04 01:25:16;;;;;;;15.40;3.30;;;;;;;4.93;96.11;98182.39;104924;1277;72718;-69
2022/01/04 01:29:23;;;;;;;10.40;3.00;;;;;;;4.88;96.08;98178.60;104783;1277;66113;-70
2022/01/04 01:37:04;;;;;;;12.70;3.00;;;;;;;4.72;95.94;98174.28;105457;1274;59461;-70
2022/01/04 01:40:31;;;;;;;12.70;3.40;;;;;;;4.65;96.33;98171.02;104995;1274;59404;-69
2022/01/04 01:43:23;;;;;;;14.90;3.30;;;;;;;4.60;96.79;98172.48;105012;1274;73816;-69
2022/01/04 01:46:16;;;;;;;14.20;3.50;;;;;;;4.58;97.01;98173.02;104856;1274;66714;-69
2022/01/04 01:49:27;;;;;;;;;;;;;;;;;;;;;
2022/01/04 01:52:21;;;;;;;15.70;3.00;;;;;;;4.62;97.37;98162.63;105006;1274;59400;-70
2022/01/04 01:55:16;;;;;;;12.40;3.20;;;;;;;4.68;97.27;98158.84;104862;1274;59346;-69
2022/01/04 01:58:05;;;;;;;13.30;3.50;;;;;;;4.72;97.37;98159.34;104908;1274;71341;-69
2022/01/04 02:01:28;;;;;;;11.10;2.90;;;;;;;4.75;97.05;98161.36;104930;1274;68267;-69
2022/01/04 02:04:31;;;;;;;10.40;2.80;;;;;;;4.78;96.77;98149.73;105309;1274;73660;-69
2022/01/04 02:07:30;;;;;;;13.10;3.10;;;;;;;4.81;96.40;98146.48;104900;1274;59297;-69
2022/01/04 02:10:23;;;;;;;11.40;2.60;;;;;;;4.83;96.26;98140.38;104978;1274;59737;-69
2022/01/04 02:13:24;;;;;;;10.40;2.40;;;;;;;4.85;95.98;98130.36;104602;1274;71168;-69
2022/01/04 02:16:32;;;;;;;12.10;2.60;;;;;;;4.83;95.76;98122.63;105107;1274;67292;-69
2022/01/04 02:23:01;;;;;;;12.40;2.50;;;;;;;4.73;96.28;98124.11;105027;1274;59416;-69
2022/01/04 02:25:56;;;;;;;12.90;2.80;;;;;;;4.71;96.52;98126.21;104874;1274;59461;-69
2022/01/04 02:28:52;;;;;;;14.30;3.10;;;;;;;4.70;96.92;98127.45;104950;1273;71155;-69
2022/01/04 02:32:04;;;;;;;10.30;2.70;;;;;;;4.70;97.00;98130.89;104964;1274;67035;-69
2022/01/04 02:35:06;;;;;;;11.80;3.10;;;;;;;4.67;97.22;98123.23;104870;1274;71630;-69
2022/01/04 02:38:03;;;;;;;10.60;3.20;;;;;;;4.62;97.23;98117.00;105039;1274;59852;-69
2022/01/04 02:40:52;;;;;;;10.30;2.90;;;;;;;4.53;97.50;98116.52;105042;1274;59356;-69
2022/01/04 02:43:44;;;;;;;12.10;2.90;;;;;;;4.50;97.78;98111.29;105087;1274;71483;-69
2022/01/04 02:46:36;;;;;;;11.30;3.60;;;;;;;4.47;98.00;98104.95;105052;1274;66276;-69
2022/01/04 02:49:25;;;;;;;12.30;2.90;;;;;;;4.46;97.96;98103.02;104883;1274;71574;-69
2022/01/04 02:52:14;;;;;;;10.40;2.60;;;;;;;4.45;98.05;98107.86;104779;1273;59396;-69
2022/01/04 02:55:12;;;;;;;9.30;3.10;;;;;;;4.46;98.10;98106.08;104858;1274;60813;-69
2022/01/04 02:58:03;;;;;;;8.80;2.90;;;;;;;4.45;97.94;98098.41;105117;1274;71392;-69
2022/01/04 03:00:56;;;;;;;12.50;3.40;;;;;;;4.42;98.32;98096.39;105022;1274;66828;-70
2022/01/04 03:03:48;;;;;;;11.40;3.30;;;;;;;4.39;98.21;98093.09;105094;1274;70509;-70
2022/01/04 03:06:38;;;;;;;14.30;3.60;;;;;;;4.39;98.43;98090.98;104842;1274;59307;-69
2022/01/04 03:09:29;;;;;;;16.90;3.50;;;;;;;4.38;98.30;98086.34;105314;1274;59311;-69
2022/01/04 03:12:20;;;;;;;11.20;3.30;;;;;;;4.36;98.30;98078.95;104616;1275;71602;-69
2022/01/04 03:15:12;;;;;;;10.40;3.20;;;;;;;4.30;98.40;98077.14;105110;1274;66820;-69
2022/01/04 03:18:01;;;;;;;11.70;3.40;;;;;;;4.23;98.68;98081.77;105081;1274;73208;-69
2022/01/04 03:20:50;;;;;;;10.10;3.40;;;;;;;4.16;98.88;98073.63;104943;1272;59416;-69
2022/01/04 03:23:42;;;;;;;12.30;3.30;;;;;;;4.09;99.31;98072.25;104852;1274;59544;-69
2022/01/04 03:26:38;;;;;;;16.10;3.80;;;;;;;4.02;99.70;98072.26;105189;1274;71904;-69
2022/01/04 03:29:57;;;;;;;14.00;4.00;;;;;;;3.96;99.81;98071.73;105294;1274;66808;-69
2022/01/04 03:32:46;;;;;;;11.40;3.70;;;;;;;3.89;100.00;98077.14;105060;1273;72359;-68
2022/01/04 03:35:35;;;;;;;13.50;3.90;;;;;;;3.87;100.00;98072.83;105194;1274;59461;-68
2022/01/04 03:38:24;;;;;;;11.30;3.70;;;;;;;3.85;100.00;98076.27;104922;1274;60915;-69
2022/01/04 03:41:16;;;;;;;13.20;4.10;;;;;;;3.83;100.00;98078.88;104841;1274;71317;-68
2022/01/04 03:44:20;;;;;;;13.10;3.60;;;;;;;3.83;100.00;98073.86;105162;1274;67956;-68
2022/01/04 03:47:21;;;;;;;13.70;3.90;;;;;;;3.84;100.00;98077.11;104493;1274;1002943;-69
2022/01/04 03:50:17;;;;;;;10.80;3.90;;;;;;;3.85;100.00;98076.09;104839;1273;59356;-68
2022/01/04 03:53:19;;;;;;;15.70;4.20;;;;;;;3.89;100.00;98078.44;104971;1274;59330;-69
2022/01/04 03:56:42;;;;;;;12.90;3.50;;;;;;;3.92;100.00;98073.97;105028;1274;72579;-68
2022/01/04 04:00:30;;;;;;;12.90;4.50;;;;;;;3.93;100.00;98074.25;104872;1275;65874;-68
2022/01/04 04:04:11;;;;;;;17.70;5.00;;;;;;;3.93;100.00;98075.11;104952;1274;71540;-69
2022/01/04 04:07:00;;;;;;;17.80;4.30;;;;;;;3.95;100.00;98072.88;104924;1274;59411;-69
2022/01/04 04:09:53;;;;;;;15.20;4.30;;;;;;;3.97;100.00;98071.42;105096;1274;60629;-69
2022/01/04 04:12:49;;;;;;;12.10;4.10;;;;;;;3.99;100.00;98068.51;104863;1272;72702;-69
2022/01/04 04:16:01;;;;;;;13.10;4.00;;;;;;;4.00;100.00;98068.73;105100;1274;67886;-69
2022/01/04 04:19:00;;;;;;;16.50;4.90;;;;;;;4.00;100.00;98072.93;104348;1274;1003889;-69
2022/01/04 04:21:53;;;;;;;13.60;4.60;;;;;;;4.02;100.00;98074.91;105031;1273;59649;-69
2022/01/04 04:25:10;;;;;;;13.70;4.40;;;;;;;4.04;100.00;98079.25;105020;1274;61986;-69
2022/01/04 04:28:10;;;;;;;11.60;3.90;;;;;;;4.06;100.00;98074.35;105131;1274;72728;-69
2022/01/04 04:31:03;;;;;;;14.30;5.10;;;;;;;4.07;100.00;98072.02;105150;1274;66775;-69
2022/01/04 04:34:07;;;;;;;13.70;4.70;;;;;;;4.12;100.00;98070.23;104758;1274;72977;-69
2022/01/04 04:36:58;;;;;;;15.80;4.60;;;;;;;4.15;100.00;98069.12;105028;1273;59349;-70
2022/01/04 04:39:53;;;;;;;14.10;4.50;;;;;;;4.16;100.00;98070.05;105092;1274;59315;-70
2022/01/04 04:43:01;;;;;;;14.20;5.10;;;;;;;4.17;100.00;98062.61;105020;1273;72716;-70
2022/01/04 04:46:36;;;;;;;14.40;4.50;;;;;;;4.18;100.00;98062.34;105081;1273;67258;-70
2022/01/04 04:49:35;;;;;;;13.50;4.70;;;;;;;4.19;100.00;98061.02;105326;1274;72892;-68
2022/01/04 04:52:28;;;;;;;17.20;5.30;;;;;;;4.23;100.00;98060.88;105365;1273;59681;-70
2022/01/04 04:55:16;;;;;;;19.40;5.80;;;;;;;4.26;99.99;98056.42;105380;1273;59363;-70
2022/01/04 04:58:05;;;;;;;12.90;4.70;;;;;;;4.29;99.97;98052.70;105304;1273;72853;-70
2022/01/04 05:00:54;;;;;;;14.70;4.80;;;;;;;4.33;99.84;98055.67;105231;1273;68042;-71
2022/01/04 05:03:42;;;;;;;16.60;4.80;;;;;;;4.35;99.88;98045.52;104937;1273;73225;-69
2022/01/04 05:06:31;;;;;;;14.80;5.50;;;;;;;4.36;99.89;98041.52;105404;1273;59825;-70
2022/01/04 05:09:22;;;;;;;14.70;5.20;;;;;;;4.40;99.65;98041.90;105177;1274;59390;-70
2022/01/04 05:12:12;;;;;;;20.20;5.20;;;;;;;4.43;99.57;98034.27;105450;1274;72263;-69
2022/01/04 05:15:18;;;;;;;15.80;5.50;;;;;;;4.45;99.12;98029.55;105300;1273;67498;-70
2022/01/04 05:18:09;;;;;;;13.40;3.90;;;;;;;4.48;99.15;98019.99;105514;1273;73038;-71
2022/01/04 05:21:01;;;;;;;14.20;4.40;;;;;;;4.50;98.96;98014.77;105390;1273;59882;-69
2022/01/04 05:23:52;;;;;;;12.00;4.30;;;;;;;4.50;98.88;98005.59;105216;1273;59547;-71
2022/01/04 05:27:30;;;;;;;16.60;5.00;;;;;;;4.48;98.57;98002.25;105259;1273;72611;-71
2022/01/04 05:29:59;;;;;;;13.00;4.80;;;;;;;4.46;98.35;98001.20;105423;1273;68479;-69
2022/01/04 05:32:48;;;;;;;14.40;4.40;;;;;;;4.44;98.53;98004.00;105124;1273;71525;-70
2022/01/04 05:35:36;;;;;;;15.40;4.70;;;;;;;4.43;98.74;97998.29;105694;1273;59429;-70
2022/01/04 05:38:28;;;;;;;16.30;4.30;;;;;;;4.43;98.82;97993.51;104953;1273;60557;-69
2022/01/04 05:41:20;;;;;;;13.70;5.20;;;;;;;4.41;98.64;97993.01;104660;1273;1003033;-69
2022/01/04 05:44:12;;;;;;;16.40;5.30;;;;;;;4.37;98.88;97993.52;105499;1273;68499;-70
2022/01/04 05:47:01;;;;;;;17.00;5.10;;;;;;;4.35;98.86;97988.63;104995;1273;73127;-69
2022/01/04 05:50:07;;;;;;;15.90;4.80;;;;;;;4.33;98.86;97989.48;105492;1274;59896;-69
2022/01/04 05:52:57;;;;;;;15.70;5.00;;;;;;;4.30;99.31;97991.31;105209;1273;59398;-70
2022/01/04 05:59:27;;;;;;;17.10;5.20;;;;;;;4.24;99.20;97988.83;104676;1274;70104;-69
2022/01/04 06:02:23;;;;;;;14.70;4.60;;;;;;;4.21;99.13;97987.16;105098;1274;71846;-70
2022/01/04 06:05:17;;;;;;;12.50;4.60;;;;;;;4.20;99.39;97985.69;105270;1273;59797;-69
2022/01/04 06:08:05;;;;;;;16.40;5.10;;;;;;;4.18;99.56;97986.53;105026;1273;60397;-69
2022/01/04 06:10:54;;;;;;;15.20;5.30;;;;;;;4.16;99.30;97976.49;104817;1273;71361;-69
2022/01/04 06:16:59;;;;;;;19.20;6.10;;;;;;;4.14;99.60;97978.14;105152;1273;73086;-69
2022/01/04 06:19:49;;;;;;;14.90;5.10;;;;;;;4.17;99.53;97976.94;104945;1273;60007;-68
2022/01/04 06:22:38;;;;;;;17.20;5.70;;;;;;;4.19;99.24;97978.39;105378;1273;59410;-69
2022/01/04 06:25:27;;;;;;;18.40;5.60;;;;;;;4.21;99.06;97977.15;105267;1273;71106;-69
2022/01/04 06:28:16;;;;;;;15.50;5.60;;;;;;;4.24;98.92;97977.75;104989;1274;68387;-69
2022/01/04 06:31:04;;;;;;;17.50;5.50;;;;;;;4.28;98.70;97976.39;105238;1273;73363;-68
2022/01/04 06:33:58;;;;;;;19.30;5.80;;;;;;;4.31;98.54;97975.11;104952;1273;60048;-68
2022/01/04 06:36:46;;;;;;;14.90;5.20;;;;;;;4.36;98.37;97973.63;105473;1273;60766;-68
2022/01/04 06:39:35;;;;;;;17.50;5.40;;;;;;;4.41;98.04;97973.48;104814;1273;72717;-69
2022/01/04 06:42:23;;;;;;;13.50;4.30;;;;;;;4.45;98.08;97971.42;104858;1273;68085;-68
2022/01/04 06:45:13;;;;;;;15.40;5.20;;;;;;;4.49;97.84;97970.70;104766;1273;72785;-69
2022/01/04 06:48:02;;;;;;;13.40;5.10;;;;;;;4.53;97.84;97972.49;105275;1273;59700;-68
2022/01/04 06:50:51;;;;;;;15.70;5.60;;;;;;;4.56;97.86;97966.66;104786;1273;60819;-68
2022/01/04 06:53:40;;;;;;;15.80;5.80;;;;;;;4.59;97.70;97976.16;105312;1273;71590;-68
2022/01/04 06:56:29;;;;;;;15.10;5.70;;;;;;;4.63;97.78;97971.67;104852;1273;67884;-69
2022/01/04 06:59:18;;;;;;;18.60;5.20;;;;;;;4.66;97.83;97963.89;105068;1273;73523;-69
2022/01/04 07:02:08;;;;;;;14.70;5.90;;;;;;;4.67;97.77;97961.11;105038;1273;59404;-69
2022/01/04 07:04:56;;;;;;;16.60;5.70;;;;;;;4.68;97.80;97952.41;105088;1273;60337;-69
2022/01/04 07:07:44;;;;;;;15.90;5.60;;;;;;;4.70;97.66;97955.57;105188;1273;72343;-68
2022/01/04 07:10:33;;;;;;;18.40;6.60;;;;;;;4.71;97.90;97952.12;105149;1273;67212;-69
2022/01/04 07:13:21;;;;;;;16.80;5.70;;;;;;;4.73;97.87;97950.02;105156;1273;73444;-68
2022/01/04 07:16:10;;;;;;;17.90;6.40;;;;;;;4.75;97.82;97948.94;104984;1272;60317;-69
2022/01/04 07:18:59;;;;;;;14.70;6.00;;;;;;;4.78;97.71;97952.22;104847;1273;60799;-68
2022/01/04 07:21:47;;;;;;;18.50;6.60;;;;;;;4.78;97.46;97950.77;104966;1273;72437;-68
2022/01/04 07:24:36;;;;;;;12.50;5.50;;;;;;;4.79;97.54;97955.67;104990;1273;66784;-68
2022/01/04 07:27:24;;;;;;;17.80;6.10;;;;;;;4.80;97.52;97953.67;105006;1273;72962;-68
2022/01/04 07:30:13;;;;;;;19.70;6.00;;;;;;;4.82;97.45;97960.91;104981;1273;59895;-68
2022/01/04 07:33:01;;;;;;;14.50;5.30;;;;;;;4.82;97.29;97960.14;104916;1273;60551;-70
2022/01/04 07:35:50;;;;;;;12.40;6.10;;;;;;;4.84;97.21;97957.57;105240;1272;71448;-69
2022/01/04 07:38:42;;;;;;;17.00;6.20;;;;;;;4.84;97.25;97955.77;104921;1273;68544;-69
2022/01/04 07:41:30;;;;;;;26.10;6.30;;;;;;;4.85;97.28;97953.88;105062;1273;71794;-69
2022/01/04 07:44:18;;;;;;;28.80;6.20;;;;;;;4.86;97.22;97954.73;105308;1273;59421;-69
2022/01/04 07:47:11;;;;;;;19.40;6.10;;;;;;;4.86;97.21;97954.88;105479;1274;59291;-70
2022/01/04 07:50:11;;;;;;;31.70;7.90;;;;;;;4.86;97.33;97948.89;104970;1274;71255;-69
2022/01/04 07:53:26;;;;;;;30.50;7.00;;;;;;;4.90;97.40;97950.67;105551;1272;67180;-69
2022/01/04 07:56:15;;;;;;;21.60;5.70;;;;;;;4.92;97.22;97943.46;105231;1273;72903;-69
2022/01/04 07:59:05;;;;;;;25.80;7.00;;;;;;;4.94;97.11;97944.69;105342;1273;59901;-70
2022/01/04 08:01:54;;;;;;;20.00;5.80;;;;;;;4.96;97.05;97942.80;105181;1274;60487;-69
2022/01/04 08:04:45;;;;;;;22.80;6.00;;;;;;;4.98;96.83;97938.03;104954;1273;72861;-69
2022/01/04 08:07:35;;;;;;;25.80;7.00;;;;;;;5.01;96.53;97946.56;105040;1274;68105;-69
2022/01/04 08:10:24;;;;;;;18.80;5.60;;;;;;;5.01;96.38;97945.85;105252;1273;73060;-70
2022/01/04 08:13:13;;;;;;;18.20;6.10;;;;;;;5.04;95.84;97947.34;105215;1273;59309;-69
2022/01/04 08:16:02;;;;;;;15.10;5.70;;;;;;;5.07;96.23;97943.55;105262;1273;60621;-70
2022/01/04 08:18:58;;;;;;;17.50;5.90;;;;;;;5.09;95.89;97949.55;105043;1274;72343;-69
2022/01/04 08:21:53;;;;;;;14.70;5.50;;;;;;;5.10;95.82;97944.20;105236;1273;67064;-68
2022/01/04 08:24:45;;;;;;;17.60;6.20;;;;;;;5.11;95.65;97944.27;105439;1273;72892;-69
2022/01/04 08:27:41;;;;;;;19.70;5.50;;;;;;;5.12;95.38;97945.97;105266;1273;59979;-68
2022/01/04 08:30:52;;;;;;;16.20;5.60;;;;;;;5.10;95.19;97940.95;105416;1273;59410;-69
2022/01/04 08:34:26;;;;;;;14.40;5.50;;;;;;;5.09;94.95;97934.95;105306;1273;71220;-69
2022/01/04 08:37:22;;;;;;;14.50;5.40;;;;;;;5.09;95.02;97930.69;105278;1273;68365;-68
2022/01/04 08:40:15;;;;;;;16.30;5.50;;;;;;;5.11;94.91;97930.23;105077;1273;72963;-68
2022/01/04 08:43:08;;;;;;;15.40;5.40;;;;;;;5.12;94.65;97929.27;105526;1273;59417;-68
2022/01/04 08:46:04;;;;;;;16.60;5.40;;;;;;;5.11;94.83;97922.40;105159;1273;59416;-68
2022/01/04 08:49:04;;;;;;;14.40;5.40;;;;;;;5.10;94.68;97918.11;105000;1273;72579;-69
2022/01/04 08:51:56;;;;;;;17.30;6.20;;;;;;;5.08;94.90;97912.05;105284;1273;67962;-69
2022/01/04 08:54:50;;;;;;;12.70;5.30;;;;;;;5.07;94.88;97918.39;105296;1273;70928;-68
2022/01/04 08:58:14;;;;;;;13.40;6.20;;;;;;;5.09;94.74;97918.23;105797;1272;59300;-68
2022/01/04 09:01:06;;;;;;;17.30;5.80;;;;;;;5.10;95.00;97919.77;104937;1273;59460;-69
2022/01/04 09:04:21;;;;;;;15.40;5.70;;;;;;;5.13;94.68;97911.61;105245;1273;73581;-68
2022/01/04 09:07:25;;;;;;;15.60;5.90;;;;;;;5.19;94.15;97911.95;105249;1273;67024;-69
2022/01/04 09:10:17;;;;;;;15.50;5.10;;;;;;;5.23;93.99;97910.80;105365;1274;71722;-68
2022/01/04 09:13:15;;;;;;;13.40;5.40;;;;;;;5.26;93.77;97916.02;104885;1273;59319;-69
2022/01/04 09:19:18;;;;;;;13.10;4.80;;;;;;;5.29;93.39;97905.70;105129;1273;73143;-69
2022/01/04 09:22:23;;;;;;;12.30;5.30;;;;;;;5.37;92.81;97906.06;105398;1273;66913;-69
2022/01/04 09:25:21;;;;;;;14.40;4.90;;;;;;;5.44;92.48;97901.41;105482;1273;71835;-70
2022/01/04 09:28:29;;;;;;;13.60;4.80;;;;;;;5.53;92.50;97903.04;105379;1273;59043;-69
2022/01/04 09:31:27;;;;;;;16.80;6.60;;;;;;;5.57;91.43;97895.11;105294;1273;61309;-69
2022/01/04 09:37:43;;;;;;;16.90;5.50;;;;;;;5.50;91.24;97883.45;105306;1273;68052;-68
2022/01/04 09:40:39;;;;;;;15.00;5.60;;;;;;;5.51;91.29;97878.77;104952;1273;71847;-69
2022/01/04 09:43:38;;;;;;;15.60;5.60;;;;;;;5.53;91.30;97878.62;105286;1273;59308;-69
2022/01/04 09:46:30;;;;;;;14.50;5.80;;;;;;;5.54;90.82;97872.92;105311;1273;59418;-69
2022/01/04 09:49:28;;;;;;;17.60;6.20;;;;;;;5.53;91.10;97867.73;105170;1273;71214;-69
2022/01/04 09:52:25;;;;;;;15.20;6.10;;;;;;;5.50;91.18;97869.04;105662;1273;66818;-69
2022/01/04 09:55:24;;;;;;;12.20;5.10;;;;;;;5.44;91.29;97869.52;105583;1273;70511;-68
2022/01/04 09:58:36;;;;;;;17.50;6.30;;;;;;;5.40;90.93;97863.74;105358;1273;59394;-68
2022/01/04 10:02:31;;;;;;;14.10;5.30;;;;;;;5.45;91.19;97864.72;105396;1273;59288;-68
2022/01/04 10:05:27;;;;;;;11.30;5.10;;;;;;;5.52;90.46;97862.67;104858;1280;71384;-68
2022/01/04 10:08:19;;;;;;;12.40;4.90;;;;;;;5.51;90.38;97858.73;104967;1279;68344;-68
2022/01/04 10:11:13;;;;;;;15.30;5.90;;;;;;;5.56;90.57;97858.33;104599;1280;71863;-69
2022/01/04 10:14:30;;;;;;;14.50;5.90;;;;;;;5.59;90.38;97851.80;104835;1280;59292;-68
2022/01/04 10:17:30;;;;;;;14.30;5.40;;;;;;;5.59;90.10;97845.52;104841;1280;59658;-69
2022/01/04 10:20:22;;;;;;;14.50;5.70;;;;;;;5.55;90.13;97840.90;104761;1280;70401;-69
2022/01/04 10:23:15;;;;;;;13.40;5.40;;;;;;;5.54;90.39;97839.31;104510;1280;67852;-70
2022/01/04 10:26:07;;;;;;;15.20;6.20;;;;;;;5.52;90.41;97837.89;104572;1280;72241;-69
2022/01/04 10:28:55;;;;;;;11.40;4.60;;;;;;;5.49;90.63;97840.60;104968;1280;59826;-69
2022/01/04 10:31:46;;;;;;;15.30;6.10;;;;;;;5.44;90.82;97840.75;104529;1279;59416;-70
2022/01/04 10:34:48;;;;;;;16.30;5.90;;;;;;;5.45;90.95;97837.06;104380;1280;71746;-70
2022/01/04 10:37:40;;;;;;;12.60;5.50;;;;;;;5.49;91.23;97829.39;104723;1279;66695;-71
2022/01/04 10:41:45;;;;;;;12.90;6.60;;;;;;;5.45;90.61;97819.55;105041;1273;73108;-69
2022/01/04 10:45:34;;;;;;;11.90;4.60;;;;;;;5.37;90.45;97811.80;105214;1273;60831;-70
2022/01/04 10:48:29;;;;;;;12.60;5.30;;;;;;;5.35;90.67;97809.55;105240;1273;59336;-70
2022/01/04 10:51:22;;;;;;;11.90;5.60;;;;;;;5.33;90.64;97814.45;104982;1273;71418;-70
2022/01/04 10:54:16;;;;;;;17.80;7.00;;;;;;;5.31;90.66;97817.45;104868;1273;67954;-72
2022/01/04 10:57:10;;;;;;;13.40;5.60;;;;;;;5.34;91.18;97821.98;105286;1272;70530;-70
2022/01/04 11:00:31;;;;;;;16.30;7.50;;;;;;;5.32;91.19;97811.89;105466;1273;58888;-70
2022/01/04 11:03:40;;;;;;;18.10;7.10;;;;;;;5.34;91.56;97804.86;105320;1273;59414;-70
2022/01/04 11:06:39;;;;;;;19.60;8.90;;;;;;;5.32;90.86;97797.81;105487;1274;71521;-71
2022/01/04 11:13:40;;;;;;;15.40;7.20;;;;;;;5.30;91.14;97773.94;105246;1273;70684;-70
2022/01/04 11:16:31;;;;;;;14.90;6.60;;;;;;;5.32;91.14;97775.69;105455;1273;59446;-71
2022/01/04 11:19:36;;;;;;;15.10;6.80;;;;;;;5.35;90.89;97771.70;104954;1273;62595;-71
2022/01/04 11:23:06;;;;;;;14.50;7.30;;;;;;;5.39;90.67;97769.45;105364;1273;70982;-71
2022/01/04 11:26:03;;;;;;;13.30;6.10;;;;;;;5.37;90.90;97765.88;105243;1273;68117;-70
2022/01/04 11:29:00;;;;;;;14.40;6.60;;;;;;;5.33;90.87;97760.47;105228;1273;73147;-70
2022/01/04 11:31:55;;;;;;;14.00;6.90;;;;;;;5.35;91.12;97746.59;105336;1274;59430;-70
2022/01/04 11:35:16;;;;;;;15.20;7.80;;;;;;;5.42;90.84;97735.77;105493;1273;59422;-70
2022/01/04 11:38:09;;;;;;;13.50;7.10;;;;;;;5.46;90.48;97729.95;105400;1274;70659;-71
2022/01/04 11:41:45;;;;;;;;;;;;;;;;;;;;;
2022/01/04 11:45:52;;;;;;;15.10;6.40;;;;;;;5.44;90.14;97722.67;105098;1274;72004;-70
2022/01/04 11:48:46;;;;;;;16.20;7.20;;;;;;;5.45;90.43;97723.84;105271;1274;59224;-70
2022/01/04 11:53:08;;;;;;;15.10;6.40;;;;;;;5.33;90.27;97718.61;105379;1273;60641;-70
2022/01/04 11:57:02;;;;;;;17.30;7.30;;;;;;;5.27;91.03;97716.51;105377;1273;71587;-70
2022/01/04 12:01:04;;;;;;;14.80;7.30;;;;;;;5.26;91.14;97705.71;105382;1273;68206;-70
2022/01/04 12:03:58;;;;;;;16.70;7.60;;;;;;;5.18;91.70;97690.99;105049;1278;73045;-70
2022/01/04 12:06:49;;;;;;;17.80;7.50;;;;;;;5.19;91.74;97680.95;104983;1280;59608;-71
2022/01/04 12:09:45;;;;;;;17.90;8.00;;;;;;;5.18;91.81;97679.29;104716;1280;60612;-71
2022/01/04 12:13:22;;;;;;;17.40;8.00;;;;;;;5.17;91.80;97685.86;105056;1277;71405;-70
2022/01/04 12:16:42;;;;;;;16.60;7.70;;;;;;;5.16;91.70;97688.55;104385;1285;67202;-70
2022/01/04 12:19:59;;;;;;;20.50;7.60;;;;;;;5.14;91.87;97682.79;104301;1285;73067;-71
2022/01/04 12:23:35;;;;;;;21.40;7.30;;;;;;;5.16;92.15;97677.86;104253;1285;59694;-71
2022/01/04 12:26:39;;;;;;;18.00;7.10;;;;;;;5.16;91.97;97675.73;104346;1285;59447;-70
2022/01/04 12:31:26;;;;;;;21.70;9.50;;;;;;;5.11;92.07;97673.89;104256;1285;72644;-70
2022/01/04 12:35:10;;;;;;;16.40;7.60;;;;;;;5.10;92.40;97670.77;104584;1285;68215;-70
2022/01/04 12:38:57;;;;;;;21.50;8.50;;;;;;;5.09;92.54;97672.18;103843;1285;73517;-70
2022/01/04 12:48:44;;;;;;;18.30;8.70;;;;;;;5.06;92.84;97654.01;102473;1302;59701;-71
2022/01/04 12:52:18;;;;;;;18.70;8.90;;;;;;;5.01;93.39;97639.13;102873;1295;72585;-71
2022/01/04 12:59:45;;;;;;;20.60;10.00;;;;;;;5.04;93.63;97639.25;103723;1294;72994;-70
2022/01/04 13:02:34;;;;;;;20.10;9.50;;;;;;;5.03;93.65;97630.94;103121;1300;59490;-71
2022/01/04 13:09:00;;;;;;;20.40;8.90;;;;;;;5.02;93.99;97627.06;102924;1300;72382;-71
2022/01/04 13:11:59;;;;;;;19.70;9.10;;;;;;;5.01;94.09;97622.46;102831;1300;68205;-70
2022/01/04 13:15:14;;;;;;;16.90;8.20;;;;;;;4.96;94.18;97621.88;103206;1300;73014;-71
2022/01/04 13:18:15;;;;;;;21.40;9.80;;;;;;;4.91;94.49;97613.16;103102;1294;59850;-70
2022/01/04 13:21:21;;;;;;;17.80;8.80;;;;;;;4.86;94.65;97598.30;103313;1294;60767;-70
2022/01/04 13:25:14;;;;;;;20.80;9.50;;;;;;;4.84;94.77;97586.59;104364;1282;70345;-70
2022/01/04 13:28:35;;;;;;;20.70;9.40;;;;;;;4.83;95.09;97582.49;104917;1281;69377;-72
2022/01/04 13:31:31;;;;;;;18.20;8.50;;;;;;;4.84;95.07;97584.71;105043;1281;72823;-72
2022/01/04 13:34:23;;;;;;;19.80;9.20;;;;;;;4.82;95.07;97584.31;104955;1281;59376;-71
2022/01/04 13:37:21;;;;;;;19.10;8.70;;;;;;;4.78;95.21;97576.23;104682;1281;60617;-70
2022/01/04 13:40:13;;;;;;;23.30;10.40;;;;;;;4.77;94.99;97572.82;104616;1274;72549;-71
2022/01/04 13:43:07;;;;;;;18.10;8.90;;;;;;;4.75;95.13;97567.80;105187;1274;67995;-71
2022/01/04 13:46:30;;;;;;;20.30;8.80;;;;;;;4.73;95.24;97567.95;105342;1274;72975;-71
2022/01/04 13:49:31;;;;;;;27.10;9.20;;;;;;;4.72;95.18;97562.58;105467;1273;60097;-72
2022/01/04 13:52:24;;;;;;;22.80;8.70;;;;;;;4.73;95.42;97563.90;105412;1273;59407;-71
2022/01/04 13:55:17;;;;;;;16.90;7.90;;;;;;;4.74;95.32;97568.59;105510;1273;71611;-71
2022/01/04 13:58:49;;;;;;;20.00;9.90;;;;;;;4.72;95.09;97566.63;105457;1273;68380;-71
2022/01/04 14:01:52;;;;;;;20.20;9.80;;;;;;;4.67;95.49;97560.08;105261;1274;72815;-71
2022/01/04 14:06:33;;;;;;;21.00;9.60;;;;;;;4.66;95.52;97559.84;105737;1274;59249;-70
2022/01/04 14:10:00;;;;;;;19.70;9.30;;;;;;;4.61;95.63;97551.52;105521;1274;60594;-71
2022/01/04 14:12:53;;;;;;;20.50;9.40;;;;;;;4.59;95.76;97555.23;105413;1274;72178;-70
2022/01/04 14:16:19;;;;;;;19.40;9.10;;;;;;;4.57;95.82;97555.75;105383;1274;68326;-70
2022/01/04 14:19:52;;;;;;;16.60;7.60;;;;;;;4.57;95.90;97555.41;105009;1274;71127;-70
2022/01/04 14:23:31;;;;;;;19.90;9.20;;;;;;;4.54;96.24;97544.10;105600;1274;59358;-70
2022/01/04 14:26:32;;;;;;;18.80;9.50;;;;;;;4.53;96.29;97548.41;105719;1274;60276;-71
2022/01/04 14:29:55;;;;;;;;;;;;;;;;;;;;;
2022/01/04 14:33:05;;;;;;;23.10;11.00;;;;;;;4.51;96.75;97540.66;105473;1273;68900;-69
2022/01/04 14:36:23;;;;;;;22.00;9.70;;;;;;;4.50;96.69;97539.23;105561;1273;71634;-70
2022/01/04 14:39:22;;;;;;;22.40;9.50;;;;;;;4.49;96.81;97533.30;105811;1273;59906;-70
2022/01/04 14:42:29;;;;;;;25.50;12.20;;;;;;;4.51;96.93;97535.20;105355;1274;59345;-70
2022/01/04 14:45:30;;;;;;;23.80;10.70;;;;;;;4.53;97.06;97533.16;105059;1272;72483;-70
2022/01/04 14:48:28;;;;;;;23.90;10.90;;;;;;;4.54;97.24;97534.77;105485;1274;68233;-71
2022/01/04 14:51:32;;;;;;;22.40;11.10;;;;;;;4.56;97.31;97541.47;105244;1273;71593;-69
2022/01/04 14:54:29;;;;;;;23.60;12.10;;;;;;;4.57;97.48;97535.20;105268;1274;59377;-70
2022/01/04 14:57:24;;;;;;;23.60;12.00;;;;;;;4.58;97.51;97530.70;105313;1273;60803;-70